Time;durP1;ratioP1;P1;durP2;ratioP2;P2;SDS_P1;SDS_P2;PMS_P1;PMS_P2;Temp;Humidity;BMP_temperature;BMP_pressure;BME280_temperature;BME280_humidity;BME280_pressure;Samples;Min_cycle;Max_cycle;Signal;HPM_P1;HPM_P2
2021/05/14 00:01:54;;;;;;;3.58;2.88;;;;;;;;;;5029893;28;20817;-62
2021/05/14 00:04:20;;;;;;;3.78;2.65;;;;;;;;;;5061489;28;20271;-62
2021/05/14 00:06:46;;;;;;;4.53;3.05;;;;;;;;;;5049856;28;20101;-61
2021/05/14 00:09:12;;;;;;;4.45;3.00;;;;;;;;;;5061041;28;20848;-62
2021/05/14 00:11:38;;;;;;;3.67;2.95;;;;;;;;;;5029927;28;20034;-62
2021/05/14 00:14:03;;;;;;;6.25;3.78;;;;;;;;;;5028964;28;20474;-63
2021/05/14 00:16:29;;;;;;;3.38;2.78;;;;;;;;;;5060910;27;21034;-63
2021/05/14 00:18:54;;;;;;;3.55;2.90;;;;;;;;;;5030793;28;20482;-62
2021/05/14 00:21:20;;;;;;;3.60;3.05;;;;;;;;;;5030775;28;20049;-62
2021/05/14 00:23:45;;;;;;;4.00;3.00;;;;;;;;;;5031450;28;20044;-62
2021/05/14 00:26:11;;;;;;;3.72;3.10;;;;;;;;;;5062159;28;20030;-62
2021/05/14 00:28:36;;;;;;;5.00;3.50;;;;;;;;;;5030127;28;20056;-62
2021/05/14 00:31:02;;;;;;;4.20;3.33;;;;;;;;;;5031212;28;20034;-62
2021/05/14 00:33:27;;;;;;;4.25;3.13;;;;;;;;;;5061648;28;20038;-62
2021/05/14 00:35:53;;;;;;;4.32;3.33;;;;;;;;;;5031011;28;20041;-62
2021/05/14 00:38:18;;;;;;;4.22;3.22;;;;;;;;;;5031180;28;20041;-62
2021/05/14 00:40:44;;;;;;;4.50;3.17;;;;;;;;;;5029657;28;20041;-62
2021/05/14 00:43:09;;;;;;;4.38;3.00;;;;;;;;;;5041297;28;20041;-62
2021/05/14 00:45:35;;;;;;;4.10;3.03;;;;;;;;;;5032186;28;20568;-62
2021/05/14 00:48:00;;;;;;;4.35;2.97;;;;;;;;;;5032967;28;20055;-63
2021/05/14 00:50:26;;;;;;;4.20;2.80;;;;;;;;;;5033228;28;31513;-63
2021/05/14 00:52:51;;;;;;;5.22;3.38;;;;;;;;;;5034424;28;20077;-62
2021/05/14 00:55:17;;;;;;;3.90;2.95;;;;;;;;;;5033540;28;20483;-62
2021/05/14 00:57:42;;;;;;;4.07;3.10;;;;;;;;;;5033403;28;20061;-63
2021/05/14 01:00:08;;;;;;;4.22;3.17;;;;;;;;;;5033616;28;20048;-62
2021/05/14 01:02:34;;;;;;;4.18;2.92;;;;;;;;;;5031265;28;20104;-62
2021/05/14 01:04:59;;;;;;;3.42;3.00;;;;;;;;;;5034345;28;20067;-62
2021/05/14 01:07:25;;;;;;;3.40;2.90;;;;;;;;;;5032035;28;20044;-62
2021/05/14 01:09:51;;;;;;;3.72;2.80;;;;;;;;;;5033234;28;20061;-62
2021/05/14 01:12:16;;;;;;;3.20;2.90;;;;;;;;;;5063978;28;20044;-62
2021/05/14 01:14:42;;;;;;;4.18;3.17;;;;;;;;;;5030954;28;20073;-62
2021/05/14 01:17:07;;;;;;;3.60;2.72;;;;;;;;;;5063837;28;20072;-62
2021/05/14 01:19:33;;;;;;;4.57;3.40;;;;;;;;;;5032062;28;20473;-62
2021/05/14 01:21:59;;;;;;;4.80;3.38;;;;;;;;;;5034183;28;20075;-62
2021/05/14 01:24:24;;;;;;;4.15;3.17;;;;;;;;;;5033029;28;20410;-63
2021/05/14 01:26:50;;;;;;;3.55;2.78;;;;;;;;;;5033552;28;20477;-62
2021/05/14 01:29:15;;;;;;;4.55;3.20;;;;;;;;;;5064617;27;20045;-62
2021/05/14 01:31:41;;;;;;;3.88;3.03;;;;;;;;;;5031933;28;20045;-63
2021/05/14 01:34:07;;;;;;;4.65;2.92;;;;;;;;;;5031326;28;20038;-62
2021/05/14 01:36:34;;;;;;;3.95;3.13;;;;;;;;;;5029844;28;20037;-62
2021/05/14 01:39:07;;;;;;;4.35;2.90;;;;;;;;;;5032638;28;20479;-62
2021/05/14 01:41:33;;;;;;;4.25;3.10;;;;;;;;;;5032179;28;20061;-62
2021/05/14 01:43:58;;;;;;;4.32;3.03;;;;;;;;;;5030828;28;20038;-62
2021/05/14 01:46:23;;;;;;;3.83;2.97;;;;;;;;;;5064548;28;20034;-62
2021/05/14 01:48:49;;;;;;;4.45;3.10;;;;;;;;;;5032582;28;20565;-62
2021/05/14 01:51:16;;;;;;;3.45;2.85;;;;;;;;;;5038335;28;20038;-63
2021/05/14 01:53:41;;;;;;;4.13;3.08;;;;;;;;;;5029799;28;20082;-64
2021/05/14 01:56:07;;;;;;;3.97;3.33;;;;;;;;;;5031844;28;20034;-62
2021/05/14 01:58:32;;;;;;;4.45;3.08;;;;;;;;;;5031916;28;20524;-62
2021/05/14 02:00:58;;;;;;;3.75;3.00;;;;;;;;;;5032679;28;20032;-63
2021/05/14 02:03:23;;;;;;;5.25;3.47;;;;;;;;;;5046469;28;20539;-62
2021/05/14 02:05:49;;;;;;;4.18;3.20;;;;;;;;;;5031502;28;20021;-62
2021/05/14 02:08:14;;;;;;;4.28;3.13;;;;;;;;;;5031993;28;20099;-62
2021/05/14 02:10:39;;;;;;;5.53;3.63;;;;;;;;;;5034873;28;20026;-62
2021/05/14 02:13:05;;;;;;;4.50;3.50;;;;;;;;;;5033457;28;20469;-62
2021/05/14 02:15:32;;;;;;;4.47;3.53;;;;;;;;;;5031171;28;20038;-62
2021/05/14 02:17:57;;;;;;;4.95;3.58;;;;;;;;;;5031415;28;20088;-62
2021/05/14 02:20:23;;;;;;;4.68;3.40;;;;;;;;;;5031073;28;20045;-62
2021/05/14 02:22:48;;;;;;;3.90;3.22;;;;;;;;;;5031504;28;21399;-63
2021/05/14 02:25:14;;;;;;;5.05;3.50;;;;;;;;;;5031598;28;20083;-62
2021/05/14 02:27:39;;;;;;;4.50;3.30;;;;;;;;;;5033080;28;20553;-62
2021/05/14 02:30:05;;;;;;;4.53;3.60;;;;;;;;;;5032778;28;20037;-62
2021/05/14 02:32:31;;;;;;;4.93;3.60;;;;;;;;;;5006319;28;20040;-62
2021/05/14 02:34:56;;;;;;;4.50;3.45;;;;;;;;;;5032285;28;20045;-62
2021/05/14 02:37:22;;;;;;;4.63;3.55;;;;;;;;;;5030603;28;24615;-62
2021/05/14 02:39:47;;;;;;;4.43;3.70;;;;;;;;;;5031887;28;20144;-62
2021/05/14 02:42:13;;;;;;;4.72;3.65;;;;;;;;;;5029170;28;20069;-62
2021/05/14 02:44:38;;;;;;;5.43;3.80;;;;;;;;;;5032317;28;20071;-62
2021/05/14 02:47:04;;;;;;;4.65;3.78;;;;;;;;;;5030455;28;20049;-63
2021/05/14 02:49:30;;;;;;;4.60;3.45;;;;;;;;;;5029425;28;20091;-62
2021/05/14 02:51:55;;;;;;;4.65;3.72;;;;;;;;;;5031487;28;20029;-62
2021/05/14 02:54:20;;;;;;;4.35;3.75;;;;;;;;;;5029586;28;20025;-62
2021/05/14 02:56:46;;;;;;;5.25;3.78;;;;;;;;;;5030612;28;20042;-62
2021/05/14 02:59:11;;;;;;;4.13;3.47;;;;;;;;;;5031732;28;20059;-62
2021/05/14 03:01:37;;;;;;;5.38;3.88;;;;;;;;;;5063842;28;20042;-62
2021/05/14 03:04:04;;;;;;;6.35;4.13;;;;;;;;;;5029575;28;20026;-62
2021/05/14 03:06:30;;;;;;;4.65;3.75;;;;;;;;;;5046340;28;20525;-62
2021/05/14 03:08:55;;;;;;;5.10;3.63;;;;;;;;;;5015038;28;20033;-63
2021/05/14 03:11:21;;;;;;;4.40;3.58;;;;;;;;;;5029904;28;20041;-62
2021/05/14 03:13:46;;;;;;;5.90;4.10;;;;;;;;;;5063753;28;24754;-62
2021/05/14 03:16:11;;;;;;;5.00;3.97;;;;;;;;;;5030991;28;20040;-62
2021/05/14 03:18:37;;;;;;;5.78;4.00;;;;;;;;;;5030286;28;20405;-62
2021/05/14 03:21:02;;;;;;;5.85;4.10;;;;;;;;;;5031643;28;20045;-62
2021/05/14 03:23:28;;;;;;;6.78;4.60;;;;;;;;;;5031141;28;20084;-62
2021/05/14 03:25:53;;;;;;;6.30;4.45;;;;;;;;;;5030104;28;20044;-62
2021/05/14 03:28:19;;;;;;;5.00;4.03;;;;;;;;;;5063116;28;20029;-62
2021/05/14 03:30:44;;;;;;;5.75;4.38;;;;;;;;;;5031380;28;20875;-62
2021/05/14 03:33:10;;;;;;;6.75;4.57;;;;;;;;;;5031515;28;20029;-62
2021/05/14 03:35:36;;;;;;;5.55;4.10;;;;;;;;;;5030367;28;20084;-62
2021/05/14 03:38:02;;;;;;;5.68;4.40;;;;;;;;;;5034411;28;20198;-62
2021/05/14 03:42:56;;;;;;;5.38;4.20;;;;;;;;;;5029203;28;20034;-62
2021/05/14 03:45:22;;;;;;;5.35;4.13;;;;;;;;;;5030718;28;20665;-62
2021/05/14 03:47:47;;;;;;;6.35;4.60;;;;;;;;;;5031473;28;20149;-62
2021/05/14 03:50:13;;;;;;;5.20;4.40;;;;;;;;;;5030367;28;20562;-62
2021/05/14 03:52:38;;;;;;;7.05;4.93;;;;;;;;;;5031416;28;20041;-62
2021/05/14 03:55:05;;;;;;;5.97;4.70;;;;;;;;;;5030070;28;20177;-61
2021/05/14 03:57:31;;;;;;;5.55;4.18;;;;;;;;;;5031446;28;20121;-62
2021/05/14 03:59:56;;;;;;;6.22;4.85;;;;;;;;;;5028919;28;20123;-62
2021/05/14 04:02:22;;;;;;;6.13;4.93;;;;;;;;;;5026628;28;20072;-62
2021/05/14 04:04:47;;;;;;;7.38;5.97;;;;;;;;;;5031292;28;20034;-62
2021/05/14 04:07:13;;;;;;;8.10;6.43;;;;;;;;;;5030027;28;20022;-62
2021/05/14 04:09:41;;;;;;;7.45;5.70;;;;;;;;;;5031472;28;20041;-61
2021/05/14 04:14:33;;;;;;;8.05;6.60;;;;;;;;;;5026382;28;20042;-61
2021/05/14 04:17:03;;;;;;;7.88;6.40;;;;;;;;;;5036110;28;20037;-61
2021/05/14 04:19:29;;;;;;;8.45;6.43;;;;;;;;;;5049787;28;20073;-61
2021/05/14 04:21:55;;;;;;;8.23;6.53;;;;;;;;;;5033494;28;20033;-61
2021/05/14 04:24:21;;;;;;;8.90;7.22;;;;;;;;;;5033886;28;20121;-61
2021/05/14 04:26:50;;;;;;;9.18;7.10;;;;;;;;;;5033702;28;20045;-61
2021/05/14 04:29:15;;;;;;;8.35;6.88;;;;;;;;;;5046610;28;20112;-61
2021/05/14 04:31:42;;;;;;;1.63;1.23;;;;;;;;;;5058715;28;20559;-61
2021/05/14 04:34:08;;;;;;;9.30;6.95;;;;;;;;;;5032515;28;20030;-61
2021/05/14 04:36:34;;;;;;;9.68;7.57;;;;;;;;;;5032495;28;20038;-61
2021/05/14 04:38:59;;;;;;;9.25;7.38;;;;;;;;;;5063703;28;20045;-61
2021/05/14 04:41:25;;;;;;;1.80;1.20;;;;;;;;;;5031910;28;20042;-61
2021/05/14 04:43:50;;;;;;;7.97;7.18;;;;;;;;;;5021622;28;21270;-61
2021/05/14 04:46:16;;;;;;;1.10;1.00;;;;;;;;;;5031892;28;20042;-60
2021/05/14 04:48:41;;;;;;;0.93;0.73;;;;;;;;;;5031915;28;20056;-61
2021/05/14 04:51:08;;;;;;;1.02;0.82;;;;;;;;;;5032055;27;20528;-61
2021/05/14 04:53:35;;;;;;;0.95;0.60;;;;;;;;;;5033934;28;20034;-61
2021/05/14 04:56:01;;;;;;;0.98;0.70;;;;;;;;;;5031400;28;20030;-61
2021/05/14 04:58:26;;;;;;;1.05;0.68;;;;;;;;;;5032927;28;25097;-61
2021/05/14 05:00:52;;;;;;;0.50;0.50;;;;;;;;;;5040110;28;20403;-61
2021/05/14 05:03:17;;;;;;;1.00;0.60;;;;;;;;;;5033268;28;20034;-60
2021/05/14 05:05:43;;;;;;;0.93;0.50;;;;;;;;;;5032987;28;20765;-61
2021/05/14 05:08:08;;;;;;;0.52;0.50;;;;;;;;;;5032264;28;20025;-60
2021/05/14 05:10:34;;;;;;;0.93;0.70;;;;;;;;;;5056874;28;20498;-61
2021/05/14 05:12:59;;;;;;;0.60;0.60;;;;;;;;;;5032318;28;20022;-60
2021/05/14 05:15:25;;;;;;;0.50;0.50;;;;;;;;;;5030698;28;20034;-61
2021/05/14 05:17:50;;;;;;;0.50;0.50;;;;;;;;;;5033943;28;20034;-60
2021/05/14 05:20:16;;;;;;;0.95;0.77;;;;;;;;;;5030774;28;20052;-61
2021/05/14 05:22:41;;;;;;;0.88;0.70;;;;;;;;;;5030568;28;20064;-61
2021/05/14 05:25:07;;;;;;;0.85;0.50;;;;;;;;;;5032050;28;20040;-60
2021/05/14 05:27:32;;;;;;;0.88;0.68;;;;;;;;;;5029744;28;20136;-61
2021/05/14 05:29:58;;;;;;;0.68;0.68;;;;;;;;;;5062340;28;20026;-61
2021/05/14 05:32:23;;;;;;;1.08;0.90;;;;;;;;;;5030611;28;20096;-62
2021/05/14 05:34:49;;;;;;;0.98;0.88;;;;;;;;;;5014587;28;20029;-61
2021/05/14 05:37:14;;;;;;;0.50;0.50;;;;;;;;;;5032730;28;20394;-60
2021/05/14 05:39:40;;;;;;;0.80;0.80;;;;;;;;;;5030786;28;20046;-61
2021/05/14 05:42:05;;;;;;;0.77;0.70;;;;;;;;;;5030976;28;20038;-61
2021/05/14 05:44:31;;;;;;;0.68;0.68;;;;;;;;;;5030108;28;20037;-61
2021/05/14 05:46:57;;;;;;;0.60;0.60;;;;;;;;;;5030758;28;20674;-61
2021/05/14 05:49:22;;;;;;;0.82;0.50;;;;;;;;;;5029508;28;20157;-61
2021/05/14 05:51:48;;;;;;;0.82;0.70;;;;;;;;;;5032446;28;20156;-61
2021/05/14 05:54:14;;;;;;;0.70;0.70;;;;;;;;;;5030885;28;20038;-60
2021/05/14 05:56:40;;;;;;;1.45;0.82;;;;;;;;;;5031275;28;20080;-61
2021/05/14 05:59:06;;;;;;;0.60;0.60;;;;;;;;;;5031123;28;20041;-61
2021/05/14 06:01:33;;;;;;;0.70;0.70;;;;;;;;;;5031933;28;20038;-61
2021/05/14 06:03:58;;;;;;;1.23;0.63;;;;;;;;;;5031192;28;20065;-61
2021/05/14 06:06:24;;;;;;;1.10;0.70;;;;;;;;;;5035913;28;20033;-61
2021/05/14 06:08:49;;;;;;;0.68;0.63;;;;;;;;;;5032294;28;20034;-61
2021/05/14 06:11:15;;;;;;;1.42;0.70;;;;;;;;;;5029320;28;20490;-61
2021/05/14 06:13:40;;;;;;;0.73;0.60;;;;;;;;;;5028314;28;20750;-61
2021/05/14 06:16:06;;;;;;;0.60;0.60;;;;;;;;;;5031366;28;20065;-61
2021/05/14 06:18:38;;;;;;;1.27;0.65;;;;;;;;;;5029997;28;20100;-60
2021/05/14 06:21:04;;;;;;;;;;;;;;;;;;5032711;28;20486;-61
2021/05/14 06:23:30;;;;;;;0.70;0.70;;;;;;;;;;5033965;28;19979;-61
2021/05/14 06:25:55;;;;;;;0.60;0.50;;;;;;;;;;5030521;28;20076;-61
2021/05/14 06:28:21;;;;;;;0.82;0.70;;;;;;;;;;5030690;28;20034;-61
2021/05/14 06:30:47;;;;;;;0.65;0.60;;;;;;;;;;5030894;28;20044;-61
2021/05/14 06:33:12;;;;;;;1.00;0.65;;;;;;;;;;5032063;28;20573;-61
2021/05/14 06:35:40;;;;;;;2.03;0.60;;;;;;;;;;5031502;28;20037;-61
2021/05/14 06:38:06;;;;;;;0.70;0.60;;;;;;;;;;5030877;28;20037;-60
2021/05/14 06:40:32;;;;;;;1.15;1.00;;;;;;;;;;5030778;28;20486;-60
2021/05/14 06:42:57;;;;;;;1.67;1.00;;;;;;;;;;5029639;28;20068;-61
2021/05/14 06:45:23;;;;;;;4.32;2.20;;;;;;;;;;5031445;28;20327;-61
2021/05/14 06:47:48;;;;;;;7.63;2.58;;;;;;;;;;5030356;28;20037;-61
2021/05/14 06:50:14;;;;;;;6.07;4.18;;;;;;;;;;5031216;28;20913;-61
2021/05/14 06:52:39;;;;;;;10.63;8.50;;;;;;;;;;5030317;27;20030;-61
2021/05/14 06:55:09;;;;;;;10.52;8.38;;;;;;;;;;5046492;28;20022;-61
2021/05/14 06:57:35;;;;;;;11.93;8.52;;;;;;;;;;5046368;28;20565;-61
2021/05/14 07:00:00;;;;;;;10.40;8.18;;;;;;;;;;5029976;28;20042;-61
2021/05/14 07:02:25;;;;;;;10.10;8.07;;;;;;;;;;5031287;28;20059;-61
2021/05/14 07:04:51;;;;;;;10.70;8.65;;;;;;;;;;5046497;28;20029;-60
2021/05/14 07:07:17;;;;;;;10.20;8.43;;;;;;;;;;5031545;28;20121;-61
2021/05/14 07:09:44;;;;;;;10.25;8.13;;;;;;;;;;5029164;28;20060;-61
2021/05/14 07:12:09;;;;;;;10.43;8.40;;;;;;;;;;5029003;28;20040;-61
2021/05/14 07:14:35;;;;;;;10.02;8.07;;;;;;;;;;5033130;28;20044;-60
2021/05/14 07:17:00;;;;;;;10.00;7.72;;;;;;;;;;5031674;28;20091;-61
2021/05/14 07:19:27;;;;;;;10.85;8.50;;;;;;;;;;5030003;28;20248;-61
2021/05/14 07:21:53;;;;;;;9.82;8.02;;;;;;;;;;5033678;28;20038;-61
2021/05/14 07:24:18;;;;;;;10.18;8.05;;;;;;;;;;5032090;28;20494;-61
2021/05/14 07:26:44;;;;;;;10.45;8.38;;;;;;;;;;5031088;28;20041;-61
2021/05/14 07:29:09;;;;;;;10.35;8.25;;;;;;;;;;5031275;28;20060;-61
2021/05/14 07:31:35;;;;;;;10.35;8.10;;;;;;;;;;5028030;28;20566;-61
2021/05/14 07:34:00;;;;;;;10.38;8.18;;;;;;;;;;5031672;28;20533;-61
2021/05/14 07:36:26;;;;;;;9.85;8.13;;;;;;;;;;5037985;28;20083;-60
2021/05/14 07:38:52;;;;;;;10.35;8.07;;;;;;;;;;5030618;28;20065;-61
2021/05/14 07:41:17;;;;;;;10.85;8.93;;;;;;;;;;5031681;28;20038;-61
2021/05/14 07:43:43;;;;;;;10.23;8.15;;;;;;;;;;5030240;27;20033;-61
2021/05/14 07:46:08;;;;;;;10.93;8.68;;;;;;;;;;5029068;28;28208;-61
2021/05/14 07:48:34;;;;;;;10.18;8.30;;;;;;;;;;5027091;28;20398;-60
2021/05/14 07:50:59;;;;;;;10.45;8.60;;;;;;;;;;5030721;28;20443;-61
2021/05/14 07:53:25;;;;;;;10.73;8.15;;;;;;;;;;5029126;28;20041;-61
2021/05/14 07:55:50;;;;;;;9.68;7.70;;;;;;;;;;5029663;28;20783;-61
2021/05/14 07:58:16;;;;;;;10.60;8.20;;;;;;;;;;5035204;28;20037;-60
2021/05/14 08:00:41;;;;;;;9.82;8.05;;;;;;;;;;5031133;28;20042;-61
2021/05/14 08:03:07;;;;;;;10.23;8.18;;;;;;;;;;5028439;28;20103;-61
2021/05/14 08:05:32;;;;;;;9.35;7.80;;;;;;;;;;5030033;28;20533;-61
2021/05/14 08:08:00;;;;;;;9.52;7.55;;;;;;;;;;5028867;28;20394;-61
2021/05/14 08:10:25;;;;;;;9.18;7.57;;;;;;;;;;5030090;28;20034;-61
2021/05/14 08:12:51;;;;;;;10.05;7.75;;;;;;;;;;5031712;28;20109;-61
2021/05/14 08:15:16;;;;;;;8.82;7.57;;;;;;;;;;5028324;28;20112;-60
2021/05/14 08:17:42;;;;;;;9.75;7.97;;;;;;;;;;5029831;28;20153;-61
2021/05/14 08:20:09;;;;;;;9.23;7.28;;;;;;;;;;5029170;28;20486;-61
2021/05/14 08:22:34;;;;;;;9.52;7.35;;;;;;;;;;5030987;28;20116;-61
2021/05/14 08:24:59;;;;;;;9.68;7.68;;;;;;;;;;5030634;28;20060;-61
2021/05/14 08:27:25;;;;;;;10.30;7.93;;;;;;;;;;5030979;28;20040;-60
2021/05/14 08:29:50;;;;;;;9.35;7.35;;;;;;;;;;5030228;28;20824;-61
2021/05/14 08:32:16;;;;;;;10.07;7.57;;;;;;;;;;5031146;28;20036;-61
2021/05/14 08:34:41;;;;;;;9.60;7.57;;;;;;;;;;5029088;28;20108;-61
2021/05/14 08:37:07;;;;;;;9.52;7.82;;;;;;;;;;5029083;28;20034;-61
2021/05/14 08:39:32;;;;;;;9.73;7.78;;;;;;;;;;5038218;28;21153;-60
2021/05/14 08:42:02;;;;;;;9.07;7.70;;;;;;;;;;5063434;27;20037;-61
2021/05/14 08:44:27;;;;;;;10.20;7.78;;;;;;;;;;5031495;28;20116;-61
2021/05/14 08:46:53;;;;;;;9.15;7.30;;;;;;;;;;5028371;28;20494;-61
2021/05/14 08:49:18;;;;;;;8.55;6.90;;;;;;;;;;5029135;28;20553;-61
2021/05/14 08:51:44;;;;;;;7.72;6.10;;;;;;;;;;5029596;28;20038;-61
2021/05/14 08:54:10;;;;;;;7.75;6.38;;;;;;;;;;5046468;28;20030;-61
2021/05/14 08:56:35;;;;;;;6.97;5.45;;;;;;;;;;5030512;28;20140;-61
2021/05/14 08:59:01;;;;;;;7.25;5.55;;;;;;;;;;5037313;28;20157;-61
2021/05/14 09:01:27;;;;;;;7.60;5.68;;;;;;;;;;5029907;28;20046;-61
2021/05/14 09:03:56;;;;;;;7.28;5.10;;;;;;;;;;5013393;28;20029;-61
2021/05/14 09:06:29;;;;;;;6.63;4.90;;;;;;;;;;5032886;28;20032;-61
2021/05/14 09:08:56;;;;;;;6.43;5.05;;;;;;;;;;5033846;28;20038;-61
2021/05/14 09:11:43;;;;;;;7.90;5.40;;;;;;;;;;5031898;28;20041;-61
2021/05/14 09:14:41;;;;;;;6.38;4.85;;;;;;;;;;5041528;28;20061;-61
2021/05/14 09:17:08;;;;;;;6.82;5.05;;;;;;;;;;5031516;28;20033;-61
2021/05/14 09:19:34;;;;;;;5.97;4.40;;;;;;;;;;5033211;28;20565;-61
2021/05/14 09:22:10;;;;;;;7.22;4.90;;;;;;;;;;5032613;28;20129;-61
2021/05/14 09:24:36;;;;;;;6.63;4.43;;;;;;;;;;5030650;28;20594;-61
2021/05/14 09:27:25;;;;;;;6.22;4.78;;;;;;;;;;5032365;28;20035;-61
2021/05/14 09:29:51;;;;;;;5.55;4.18;;;;;;;;;;5031328;28;20059;-61
2021/05/14 09:32:23;;;;;;;6.25;4.22;;;;;;;;;;5045884;28;20037;-68
2021/05/14 09:34:59;;;;;;;5.80;4.25;;;;;;;;;;5031414;28;20042;-60
2021/05/14 09:37:25;;;;;;;6.47;4.70;;;;;;;;;;5036603;28;20053;-61
2021/05/14 09:40:13;;;;;;;6.93;4.75;;;;;;;;;;5032007;28;20036;-62
2021/05/14 09:42:39;;;;;;;6.10;5.15;;;;;;;;;;5032530;28;20125;-62
2021/05/14 09:45:24;;;;;;;5.90;5.00;;;;;;;;;;5031453;28;20492;-62
2021/05/14 09:48:15;;;;;;;5.45;4.45;;;;;;;;;;5023923;28;20538;-61
2021/05/14 09:50:41;;;;;;;6.70;4.72;;;;;;;;;;5045582;28;20906;-62
2021/05/14 09:53:11;;;;;;;5.88;4.60;;;;;;;;;;5031940;28;20030;-62
2021/05/14 09:55:38;;;;;;;6.50;4.80;;;;;;;;;;5049629;28;20562;-62
2021/05/14 09:58:18;;;;;;;6.53;4.75;;;;;;;;;;5029935;28;20080;-62
2021/05/14 10:00:44;;;;;;;6.22;4.72;;;;;;;;;;5053460;28;20065;-62
2021/05/14 10:03:11;;;;;;;6.78;4.97;;;;;;;;;;5030228;28;20034;-62
2021/05/14 10:05:37;;;;;;;6.90;5.05;;;;;;;;;;5031657;28;20049;-62
2021/05/14 10:08:04;;;;;;;5.82;4.43;;;;;;;;;;5030412;28;20065;-62
2021/05/14 10:10:31;;;;;;;6.50;4.72;;;;;;;;;;5021662;28;20037;-62
2021/05/14 10:12:56;;;;;;;6.25;4.25;;;;;;;;;;5007150;28;20038;-62
2021/05/14 10:15:22;;;;;;;6.88;4.93;;;;;;;;;;5031631;28;20449;-62
2021/05/14 10:17:48;;;;;;;6.35;5.30;;;;;;;;;;5047362;28;20030;-62
2021/05/14 10:20:18;;;;;;;5.97;4.45;;;;;;;;;;5040940;28;20046;-61
2021/05/14 10:22:43;;;;;;;6.88;5.10;;;;;;;;;;5065108;28;20050;-62
2021/05/14 10:25:09;;;;;;;6.53;5.05;;;;;;;;;;5014951;28;20042;-62
2021/05/14 10:27:44;;;;;;;5.78;4.57;;;;;;;;;;5016689;28;20060;-61
2021/05/14 10:30:10;;;;;;;6.82;4.95;;;;;;;;;;5030379;28;20042;-61
2021/05/14 10:32:44;;;;;;;6.40;4.78;;;;;;;;;;5030601;28;20756;-61
2021/05/14 10:35:30;;;;;;;5.93;4.55;;;;;;;;;;5035394;28;20453;-61
2021/05/14 10:38:08;;;;;;;5.53;4.43;;;;;;;;;;5031368;28;20050;-62
2021/05/14 10:40:34;;;;;;;6.28;4.63;;;;;;;;;;5031718;28;20045;-61
2021/05/14 10:43:00;;;;;;;5.95;4.20;;;;;;;;;;5031851;28;20037;-61
2021/05/14 10:45:35;;;;;;;5.65;4.13;;;;;;;;;;5028895;28;20943;-61
2021/05/14 10:48:01;;;;;;;5.55;4.50;;;;;;;;;;5030681;28;20032;-61
2021/05/14 10:50:31;;;;;;;5.88;4.25;;;;;;;;;;5028022;28;20037;-62
2021/05/14 10:53:19;;;;;;;5.07;4.32;;;;;;;;;;5046782;28;20306;-61
2021/05/14 10:55:46;;;;;;;5.10;4.18;;;;;;;;;;5064187;28;20034;-61
2021/05/14 10:58:45;;;;;;;5.68;4.20;;;;;;;;;;5063891;28;20041;-61
2021/05/14 11:01:27;;;;;;;5.65;4.18;;;;;;;;;;5033589;28;20967;-61
2021/05/14 11:03:52;;;;;;;6.72;4.60;;;;;;;;;;5030055;28;20603;-61
2021/05/14 11:06:18;;;;;;;5.25;3.70;;;;;;;;;;5031374;28;20033;-62
2021/05/14 11:09:02;;;;;;;5.45;4.13;;;;;;;;;;5030936;28;20095;-62
2021/05/14 11:11:28;;;;;;;6.20;4.35;;;;;;;;;;5029678;28;20048;-62
2021/05/14 11:13:53;;;;;;;6.47;4.38;;;;;;;;;;5029052;28;20064;-61
2021/05/14 11:16:41;;;;;;;5.93;4.28;;;;;;;;;;5030460;28;20132;-61
2021/05/14 11:19:22;;;;;;;5.13;3.60;;;;;;;;;;5032047;28;20046;-62
2021/05/14 11:22:05;;;;;;;5.43;3.65;;;;;;;;;;5032049;28;20485;-61
2021/05/14 11:24:36;;;;;;;4.05;3.30;;;;;;;;;;5030715;28;20040;-62
2021/05/14 11:27:16;;;;;;;6.15;4.47;;;;;;;;;;5035136;28;20458;-62
2021/05/14 11:29:46;;;;;;;7.13;5.10;;;;;;;;;;5029172;28;20034;-61
2021/05/14 11:32:25;;;;;;;6.93;4.90;;;;;;;;;;5029385;28;20045;-61
2021/05/14 11:35:07;;;;;;;6.82;4.80;;;;;;;;;;5031454;28;20038;-61
2021/05/14 11:37:37;;;;;;;7.13;4.57;;;;;;;;;;5032457;28;20038;-61
2021/05/14 11:40:14;;;;;;;7.80;5.10;;;;;;;;;;5060499;28;20077;-61
2021/05/14 11:42:47;;;;;;;6.85;5.20;;;;;;;;;;5037550;28;20068;-61
2021/05/14 11:45:37;;;;;;;6.97;5.43;;;;;;;;;;5027865;28;20080;-62
2021/05/14 11:48:23;;;;;;;6.60;5.25;;;;;;;;;;5057693;28;20065;-61
2021/05/14 11:50:55;;;;;;;7.47;5.40;;;;;;;;;;5033057;28;20069;-62
2021/05/14 11:53:20;;;;;;;6.43;4.70;;;;;;;;;;5030357;28;20045;-61
2021/05/14 11:55:47;;;;;;;5.18;4.28;;;;;;;;;;5029605;28;20544;-61
2021/05/14 11:58:12;;;;;;;6.68;5.10;;;;;;;;;;5026768;28;20520;-62
2021/05/14 12:00:45;;;;;;;6.50;4.97;;;;;;;;;;5032068;28;20123;-61
2021/05/14 12:03:11;;;;;;;6.95;5.50;;;;;;;;;;5032156;28;20040;-61
2021/05/14 12:05:38;;;;;;;6.35;4.80;;;;;;;;;;5063080;28;20139;-61
2021/05/14 12:08:16;;;;;;;6.53;5.05;;;;;;;;;;5016237;28;20038;-62
2021/05/14 12:10:51;;;;;;;5.50;4.30;;;;;;;;;;5030258;28;20041;-61
2021/05/14 12:13:20;;;;;;;4.60;3.63;;;;;;;;;;5032451;28;20223;-61
2021/05/14 12:16:06;;;;;;;4.80;3.95;;;;;;;;;;5031243;28;20104;-61
2021/05/14 12:18:33;;;;;;;4.20;3.60;;;;;;;;;;5027023;28;21225;-62
2021/05/14 12:21:00;;;;;;;5.28;4.10;;;;;;;;;;5028530;28;20045;-60
2021/05/14 12:23:26;;;;;;;4.80;3.97;;;;;;;;;;5030455;28;20033;-61
2021/05/14 12:26:00;;;;;;;4.57;3.75;;;;;;;;;;5042890;28;20034;-61
2021/05/14 12:28:26;;;;;;;5.22;4.20;;;;;;;;;;5033092;28;20076;-61
2021/05/14 12:30:52;;;;;;;6.35;4.97;;;;;;;;;;5062533;28;20490;-62
2021/05/14 12:33:17;;;;;;;5.78;4.68;;;;;;;;;;5035742;28;20030;-62
2021/05/14 12:36:14;;;;;;;6.63;5.03;;;;;;;;;;5029345;28;20037;-61
2021/05/14 12:38:41;;;;;;;6.53;4.95;;;;;;;;;;5034139;28;20520;-61
2021/05/14 12:41:24;;;;;;;5.75;4.50;;;;;;;;;;5033947;28;20041;-62
2021/05/14 12:44:05;;;;;;;6.22;4.57;;;;;;;;;;5047682;28;20042;-61
2021/05/14 12:46:31;;;;;;;5.03;4.18;;;;;;;;;;5031309;28;20041;-61
2021/05/14 12:49:14;;;;;;;7.15;4.90;;;;;;;;;;5014053;28;20044;-61
2021/05/14 12:51:39;;;;;;;5.78;4.05;;;;;;;;;;5031170;28;20038;-61
2021/05/14 12:54:05;;;;;;;5.40;4.28;;;;;;;;;;5033409;28;20030;-61
2021/05/14 12:56:31;;;;;;;5.70;4.40;;;;;;;;;;5029471;28;20547;-61
2021/05/14 12:59:00;;;;;;;5.78;4.43;;;;;;;;;;5020485;28;20042;-62
2021/05/14 13:01:26;;;;;;;5.88;4.05;;;;;;;;;;5031949;28;20037;-61
2021/05/14 13:04:04;;;;;;;5.68;3.75;;;;;;;;;;5030775;28;20029;-61
2021/05/14 13:06:30;;;;;;;5.63;4.07;;;;;;;;;;5031811;28;20026;-62
2021/05/14 13:09:04;;;;;;;4.38;3.53;;;;;;;;;;5033993;28;20042;-61
2021/05/14 13:11:31;;;;;;;4.43;3.15;;;;;;;;;;5032216;28;20079;-61
2021/05/14 13:13:57;;;;;;;4.35;2.95;;;;;;;;;;5033383;28;20041;-61
2021/05/14 13:16:22;;;;;;;3.28;2.50;;;;;;;;;;5033341;28;20044;-61
2021/05/14 13:18:48;;;;;;;3.30;2.50;;;;;;;;;;5030643;28;21264;-60
2021/05/14 13:21:13;;;;;;;3.17;2.38;;;;;;;;;;5034675;28;20034;-61
2021/05/14 13:23:40;;;;;;;2.78;2.42;;;;;;;;;;5039028;28;20026;-61
2021/05/14 13:26:05;;;;;;;3.53;2.60;;;;;;;;;;5040776;28;20069;-61
2021/05/14 13:28:31;;;;;;;3.88;2.40;;;;;;;;;;5031201;28;20049;-61
2021/05/14 13:30:56;;;;;;;3.10;2.58;;;;;;;;;;5033921;28;20033;-61
2021/05/14 13:33:22;;;;;;;3.17;2.45;;;;;;;;;;5032947;28;20030;-61
2021/05/14 13:35:47;;;;;;;3.08;2.50;;;;;;;;;;5032321;28;20034;-61
2021/05/14 13:38:13;;;;;;;2.92;2.22;;;;;;;;;;5033169;28;20088;-61
2021/05/14 13:40:38;;;;;;;2.95;2.17;;;;;;;;;;5031963;28;20038;-61
2021/05/14 13:43:04;;;;;;;3.42;2.40;;;;;;;;;;5064302;28;20597;-61
2021/05/14 13:45:29;;;;;;;2.92;2.30;;;;;;;;;;5049733;28;20021;-61
2021/05/14 13:47:55;;;;;;;2.42;1.95;;;;;;;;;;5049526;28;20038;-61
2021/05/14 13:50:20;;;;;;;3.05;1.90;;;;;;;;;;5033275;28;20045;-61
2021/05/14 13:52:46;;;;;;;3.38;2.10;;;;;;;;;;5031241;28;20037;-61
2021/05/14 13:55:11;;;;;;;2.88;2.15;;;;;;;;;;5034110;28;20064;-62
2021/05/14 13:57:37;;;;;;;3.92;1.95;;;;;;;;;;5032272;28;20061;-61
2021/05/14 14:00:04;;;;;;;2.45;1.92;;;;;;;;;;5030654;28;20045;-61
2021/05/14 14:02:37;;;;;;;2.35;1.88;;;;;;;;;;5027771;28;20041;-61
2021/05/14 14:05:03;;;;;;;2.92;1.98;;;;;;;;;;5031561;28;20447;-61
2021/05/14 14:07:29;;;;;;;2.78;1.92;;;;;;;;;;5030894;28;20025;-61
2021/05/14 14:09:54;;;;;;;2.25;1.90;;;;;;;;;;5033471;28;20033;-61
2021/05/14 14:12:19;;;;;;;3.08;2.17;;;;;;;;;;5030666;28;20034;-61
2021/05/14 14:14:45;;;;;;;4.03;2.13;;;;;;;;;;5030080;28;20042;-61
2021/05/14 14:17:10;;;;;;;3.65;2.20;;;;;;;;;;5063023;28;20037;-61
2021/05/14 14:19:36;;;;;;;2.70;1.98;;;;;;;;;;5031218;28;20457;-61
2021/05/14 14:22:01;;;;;;;4.00;2.00;;;;;;;;;;5031552;28;20026;-61
2021/05/14 14:24:27;;;;;;;2.67;1.90;;;;;;;;;;5031529;28;20486;-61
2021/05/14 14:26:52;;;;;;;2.25;1.80;;;;;;;;;;5030679;28;20461;-61
2021/05/14 14:29:18;;;;;;;2.70;2.08;;;;;;;;;;5013875;28;20039;-62
2021/05/14 14:31:43;;;;;;;2.55;1.63;;;;;;;;;;5031288;28;20489;-61
2021/05/14 14:34:10;;;;;;;1.95;1.65;;;;;;;;;;5018996;28;20036;-61
2021/05/14 14:36:35;;;;;;;3.67;2.05;;;;;;;;;;5032784;28;20587;-62
2021/05/14 14:39:01;;;;;;;2.00;1.70;;;;;;;;;;5033399;28;20072;-61
2021/05/14 14:41:26;;;;;;;2.15;1.75;;;;;;;;;;5030850;28;20125;-61
2021/05/14 14:43:52;;;;;;;2.28;1.90;;;;;;;;;;5031987;28;20030;-61
2021/05/14 14:46:18;;;;;;;2.78;1.95;;;;;;;;;;5031126;28;20044;-61
2021/05/14 14:48:44;;;;;;;2.70;1.70;;;;;;;;;;5039712;28;20065;-61
2021/05/14 14:51:09;;;;;;;2.35;1.48;;;;;;;;;;5031098;28;20564;-61